sensor_id;sensor_type;location;lat;lon;timestamp;P1;durP1;ratioP1;P2;durP2;ratioP2
21270;SDS011;10795;50.796;3.860;2022-11-11T00:00:47;16.92;;;8.82;;
21270;SDS011;10795;50.796;3.860;2022-11-11T00:03:43;15.80;;;9.20;;
21270;SDS011;10795;50.796;3.860;2022-11-11T00:06:27;15.98;;;8.77;;
21270;SDS011;10795;50.796;3.860;2022-11-11T00:09:17;16.25;;;9.52;;
21270;SDS011;10795;50.796;3.860;2022-11-11T00:12:07;14.15;;;9.25;;
21270;SDS011;10795;50.796;3.860;2022-11-11T00:14:55;18.35;;;9.77;;
21270;SDS011;10795;50.796;3.860;2022-11-11T00:17:55;13.55;;;7.80;;
21270;SDS011;10795;50.796;3.860;2022-11-11T00:20:58;14.27;;;9.05;;
21270;SDS011;10795;50.796;3.860;2022-11-11T00:24:02;15.55;;;8.00;;
21270;SDS011;10795;50.796;3.860;2022-11-11T00:27:08;14.88;;;6.97;;
21270;SDS011;10795;50.796;3.860;2022-11-11T00:29:54;14.50;;;9.73;;
21270;SDS011;10795;50.796;3.860;2022-11-11T00:32:45;12.65;;;7.35;;
21270;SDS011;10795;50.796;3.860;2022-11-11T00:35:41;18.20;;;10.10;;
21270;SDS011;10795;50.796;3.860;2022-11-11T00:38:40;18.03;;;10.40;;
21270;SDS011;10795;50.796;3.860;2022-11-11T00:41:41;13.35;;;8.60;;
21270;SDS011;10795;50.796;3.860;2022-11-11T00:44:28;15.45;;;10.07;;
21270;SDS011;10795;50.796;3.860;2022-11-11T00:47:24;16.30;;;9.25;;
21270;SDS011;10795;50.796;3.860;2022-11-11T00:50:34;15.10;;;9.95;;
21270;SDS011;10795;50.796;3.860;2022-11-11T00:53:37;16.80;;;10.25;;
21270;SDS011;10795;50.796;3.860;2022-11-11T00:56:24;15.75;;;8.95;;
21270;SDS011;10795;50.796;3.860;2022-11-11T00:59:11;18.05;;;10.23;;
21270;SDS011;10795;50.796;3.860;2022-11-11T01:01:56;17.25;;;10.18;;
21270;SDS011;10795;50.796;3.860;2022-11-11T01:04:50;10.85;;;6.93;;
21270;SDS011;10795;50.796;3.860;2022-11-11T01:07:37;10.38;;;7.18;;
21270;SDS011;10795;50.796;3.860;2022-11-11T01:10:30;16.17;;;8.88;;
21270;SDS011;10795;50.796;3.860;2022-11-11T01:13:31;14.20;;;9.15;;
21270;SDS011;10795;50.796;3.860;2022-11-11T01:19:26;13.35;;;8.10;;
21270;SDS011;10795;50.796;3.860;2022-11-11T01:22:14;15.50;;;10.38;;
21270;SDS011;10795;50.796;3.860;2022-11-11T01:25:07;12.05;;;9.25;;
21270;SDS011;10795;50.796;3.860;2022-11-11T01:27:56;16.88;;;9.85;;
21270;SDS011;10795;50.796;3.860;2022-11-11T01:31:03;14.75;;;9.38;;
21270;SDS011;10795;50.796;3.860;2022-11-11T01:34:00;20.25;;;10.18;;
21270;SDS011;10795;50.796;3.860;2022-11-11T01:37:10;17.73;;;11.45;;
21270;SDS011;10795;50.796;3.860;2022-11-11T01:40:06;19.58;;;11.23;;
21270;SDS011;10795;50.796;3.860;2022-11-11T01:43:13;17.23;;;9.13;;
21270;SDS011;10795;50.796;3.860;2022-11-11T01:46:04;18.27;;;9.70;;
21270;SDS011;10795;50.796;3.860;2022-11-11T01:52:26;17.35;;;10.45;;
21270;SDS011;10795;50.796;3.860;2022-11-11T01:55:31;20.92;;;12.10;;
21270;SDS011;10795;50.796;3.860;2022-11-11T01:58:37;15.55;;;8.73;;
21270;SDS011;10795;50.796;3.860;2022-11-11T02:05:27;19.73;;;11.07;;
21270;SDS011;10795;50.796;3.860;2022-11-11T02:08:41;17.17;;;11.43;;
21270;SDS011;10795;50.796;3.860;2022-11-11T02:18:19;15.43;;;10.40;;
21270;SDS011;10795;50.796;3.860;2022-11-11T02:25:13;13.15;;;8.30;;
21270;SDS011;10795;50.796;3.860;2022-11-11T02:28:23;17.20;;;10.40;;
21270;SDS011;10795;50.796;3.860;2022-11-11T02:31:30;16.08;;;9.98;;
21270;SDS011;10795;50.796;3.860;2022-11-11T02:34:17;14.38;;;10.07;;
21270;SDS011;10795;50.796;3.860;2022-11-11T02:37:13;16.35;;;10.93;;
21270;SDS011;10795;50.796;3.860;2022-11-11T02:40:05;16.08;;;9.75;;
21270;SDS011;10795;50.796;3.860;2022-11-11T02:43:05;17.17;;;10.20;;
21270;SDS011;10795;50.796;3.860;2022-11-11T02:48:48;14.10;;;9.75;;
21270;SDS011;10795;50.796;3.860;2022-11-11T02:51:41;13.85;;;9.00;;
21270;SDS011;10795;50.796;3.860;2022-11-11T02:54:35;14.32;;;9.98;;
21270;SDS011;10795;50.796;3.860;2022-11-11T02:57:29;15.57;;;8.68;;
21270;SDS011;10795;50.796;3.860;2022-11-11T03:00:17;16.65;;;10.07;;
21270;SDS011;10795;50.796;3.860;2022-11-11T03:03:01;15.90;;;9.68;;
21270;SDS011;10795;50.796;3.860;2022-11-11T03:05:49;15.90;;;10.60;;
21270;SDS011;10795;50.796;3.860;2022-11-11T03:08:41;14.10;;;10.10;;
21270;SDS011;10795;50.796;3.860;2022-11-11T03:11:28;16.05;;;10.85;;
21270;SDS011;10795;50.796;3.860;2022-11-11T03:14:12;17.20;;;9.63;;
21270;SDS011;10795;50.796;3.860;2022-11-11T03:17:18;14.80;;;10.35;;
21270;SDS011;10795;50.796;3.860;2022-11-11T03:20:23;19.48;;;8.85;;
21270;SDS011;10795;50.796;3.860;2022-11-11T03:23:28;18.52;;;9.32;;
21270;SDS011;10795;50.796;3.860;2022-11-11T03:26:30;16.40;;;8.88;;
21270;SDS011;10795;50.796;3.860;2022-11-11T03:29:17;13.75;;;9.85;;
21270;SDS011;10795;50.796;3.860;2022-11-11T03:32:05;17.33;;;10.60;;
21270;SDS011;10795;50.796;3.860;2022-11-11T03:35:06;17.05;;;11.48;;
21270;SDS011;10795;50.796;3.860;2022-11-11T03:37:56;13.98;;;9.40;;
21270;SDS011;10795;50.796;3.860;2022-11-11T03:41:02;17.02;;;11.90;;
21270;SDS011;10795;50.796;3.860;2022-11-11T03:43:52;17.05;;;11.70;;
21270;SDS011;10795;50.796;3.860;2022-11-11T03:46:46;19.10;;;11.60;;
21270;SDS011;10795;50.796;3.860;2022-11-11T03:49:36;16.85;;;10.05;;
21270;SDS011;10795;50.796;3.860;2022-11-11T03:52:41;17.45;;;10.65;;
21270;SDS011;10795;50.796;3.860;2022-11-11T03:55:37;17.67;;;11.43;;
21270;SDS011;10795;50.796;3.860;2022-11-11T03:58:31;16.02;;;10.80;;
21270;SDS011;10795;50.796;3.860;2022-11-11T04:01:21;16.83;;;10.57;;
21270;SDS011;10795;50.796;3.860;2022-11-11T04:04:27;13.32;;;9.23;;
21270;SDS011;10795;50.796;3.860;2022-11-11T04:07:30;16.25;;;11.05;;
21270;SDS011;10795;50.796;3.860;2022-11-11T04:10:36;18.83;;;10.85;;
21270;SDS011;10795;50.796;3.860;2022-11-11T04:13:20;18.35;;;11.48;;
21270;SDS011;10795;50.796;3.860;2022-11-11T04:16:23;13.35;;;9.60;;
21270;SDS011;10795;50.796;3.860;2022-11-11T04:19:10;22.40;;;11.35;;
21270;SDS011;10795;50.796;3.860;2022-11-11T04:22:13;17.58;;;10.70;;
21270;SDS011;10795;50.796;3.860;2022-11-11T04:31:47;18.50;;;10.48;;
21270;SDS011;10795;50.796;3.860;2022-11-11T04:34:56;17.80;;;10.80;;
21270;SDS011;10795;50.796;3.860;2022-11-11T04:37:47;18.42;;;10.93;;
21270;SDS011;10795;50.796;3.860;2022-11-11T04:40:43;17.60;;;10.45;;
21270;SDS011;10795;50.796;3.860;2022-11-11T04:43:46;10.82;;;7.20;;
21270;SDS011;10795;50.796;3.860;2022-11-11T04:46:49;16.35;;;9.82;;
21270;SDS011;10795;50.796;3.860;2022-11-11T04:49:33;18.50;;;10.55;;
21270;SDS011;10795;50.796;3.860;2022-11-11T04:52:20;13.30;;;9.88;;
21270;SDS011;10795;50.796;3.860;2022-11-11T04:55:13;18.70;;;11.40;;
21270;SDS011;10795;50.796;3.860;2022-11-11T04:58:20;17.17;;;10.15;;
21270;SDS011;10795;50.796;3.860;2022-11-11T05:01:07;15.00;;;9.90;;
21270;SDS011;10795;50.796;3.860;2022-11-11T05:03:51;16.83;;;10.20;;
21270;SDS011;10795;50.796;3.860;2022-11-11T05:06:36;15.43;;;10.90;;
21270;SDS011;10795;50.796;3.860;2022-11-11T05:09:39;15.00;;;10.20;;
21270;SDS011;10795;50.796;3.860;2022-11-11T05:12:28;17.23;;;11.68;;
21270;SDS011;10795;50.796;3.860;2022-11-11T05:15:18;15.68;;;10.80;;
21270;SDS011;10795;50.796;3.860;2022-11-11T05:18:21;17.08;;;11.18;;
21270;SDS011;10795;50.796;3.860;2022-11-11T05:21:25;14.57;;;9.60;;
21270;SDS011;10795;50.796;3.860;2022-11-11T05:24:12;16.45;;;11.45;;
21270;SDS011;10795;50.796;3.860;2022-11-11T05:27:15;16.27;;;10.85;;
21270;SDS011;10795;50.796;3.860;2022-11-11T05:30:00;18.77;;;11.52;;
21270;SDS011;10795;50.796;3.860;2022-11-11T05:32:53;16.38;;;10.77;;
21270;SDS011;10795;50.796;3.860;2022-11-11T05:35:42;17.00;;;11.05;;
21270;SDS011;10795;50.796;3.860;2022-11-11T05:38:27;19.90;;;11.70;;
21270;SDS011;10795;50.796;3.860;2022-11-11T05:41:16;18.65;;;10.65;;
21270;SDS011;10795;50.796;3.860;2022-11-11T05:44:03;18.55;;;11.65;;
21270;SDS011;10795;50.796;3.860;2022-11-11T05:46:53;16.65;;;10.65;;
21270;SDS011;10795;50.796;3.860;2022-11-11T05:49:42;15.98;;;10.85;;
21270;SDS011;10795;50.796;3.860;2022-11-11T05:52:29;18.80;;;11.27;;
21270;SDS011;10795;50.796;3.860;2022-11-11T05:55:14;17.77;;;11.60;;
21270;SDS011;10795;50.796;3.860;2022-11-11T05:57:59;21.23;;;12.07;;
21270;SDS011;10795;50.796;3.860;2022-11-11T06:00:43;19.05;;;12.23;;
21270;SDS011;10795;50.796;3.860;2022-11-11T06:03:28;21.00;;;12.02;;
21270;SDS011;10795;50.796;3.860;2022-11-11T06:06:13;21.08;;;11.40;;
21270;SDS011;10795;50.796;3.860;2022-11-11T06:08:57;16.50;;;10.73;;
21270;SDS011;10795;50.796;3.860;2022-11-11T06:11:44;16.58;;;10.63;;
21270;SDS011;10795;50.796;3.860;2022-11-11T06:14:28;18.85;;;11.55;;
21270;SDS011;10795;50.796;3.860;2022-11-11T06:17:13;17.70;;;11.18;;
21270;SDS011;10795;50.796;3.860;2022-11-11T06:19:58;19.02;;;11.35;;
21270;SDS011;10795;50.796;3.860;2022-11-11T06:22:42;16.15;;;10.20;;
21270;SDS011;10795;50.796;3.860;2022-11-11T06:25:38;17.10;;;10.40;;
21270;SDS011;10795;50.796;3.860;2022-11-11T06:28:46;15.15;;;8.85;;
21270;SDS011;10795;50.796;3.860;2022-11-11T06:31:31;15.68;;;8.23;;
21270;SDS011;10795;50.796;3.860;2022-11-11T06:34:15;13.98;;;9.57;;
21270;SDS011;10795;50.796;3.860;2022-11-11T06:37:00;11.57;;;8.13;;
21270;SDS011;10795;50.796;3.860;2022-11-11T06:39:44;17.83;;;9.70;;
21270;SDS011;10795;50.796;3.860;2022-11-11T06:42:29;17.50;;;9.38;;
21270;SDS011;10795;50.796;3.860;2022-11-11T06:45:18;14.48;;;8.85;;
21270;SDS011;10795;50.796;3.860;2022-11-11T06:48:03;10.63;;;7.47;;
21270;SDS011;10795;50.796;3.860;2022-11-11T06:50:48;14.57;;;8.40;;
21270;SDS011;10795;50.796;3.860;2022-11-11T06:53:32;10.13;;;6.90;;
21270;SDS011;10795;50.796;3.860;2022-11-11T06:56:18;12.43;;;9.02;;
21270;SDS011;10795;50.796;3.860;2022-11-11T06:59:03;18.25;;;9.23;;
21270;SDS011;10795;50.796;3.860;2022-11-11T07:01:49;13.05;;;8.50;;
21270;SDS011;10795;50.796;3.860;2022-11-11T07:04:33;14.15;;;7.80;;
21270;SDS011;10795;50.796;3.860;2022-11-11T07:07:18;12.65;;;8.45;;
21270;SDS011;10795;50.796;3.860;2022-11-11T07:10:05;12.43;;;7.30;;
21270;SDS011;10795;50.796;3.860;2022-11-11T07:12:55;10.65;;;8.45;;
21270;SDS011;10795;50.796;3.860;2022-11-11T07:15:42;14.10;;;7.93;;
21270;SDS011;10795;50.796;3.860;2022-11-11T07:18:26;11.80;;;8.27;;
21270;SDS011;10795;50.796;3.860;2022-11-11T07:21:11;14.43;;;8.90;;
21270;SDS011;10795;50.796;3.860;2022-11-11T07:23:55;10.65;;;7.75;;
21270;SDS011;10795;50.796;3.860;2022-11-11T07:26:42;13.48;;;7.90;;
21270;SDS011;10795;50.796;3.860;2022-11-11T07:29:27;9.40;;;7.57;;
21270;SDS011;10795;50.796;3.860;2022-11-11T07:32:11;12.00;;;7.95;;
21270;SDS011;10795;50.796;3.860;2022-11-11T07:34:56;12.82;;;7.60;;
21270;SDS011;10795;50.796;3.860;2022-11-11T07:37:40;13.18;;;7.28;;
21270;SDS011;10795;50.796;3.860;2022-11-11T07:40:25;10.90;;;7.57;;
21270;SDS011;10795;50.796;3.860;2022-11-11T07:43:09;10.07;;;6.60;;
21270;SDS011;10795;50.796;3.860;2022-11-11T07:45:53;8.65;;;5.53;;
21270;SDS011;10795;50.796;3.860;2022-11-11T07:48:37;12.25;;;7.20;;
21270;SDS011;10795;50.796;3.860;2022-11-11T07:51:21;13.50;;;7.88;;
21270;SDS011;10795;50.796;3.860;2022-11-11T07:54:05;13.85;;;7.35;;
21270;SDS011;10795;50.796;3.860;2022-11-11T07:56:49;9.07;;;6.88;;
21270;SDS011;10795;50.796;3.860;2022-11-11T07:59:34;9.43;;;6.57;;
21270;SDS011;10795;50.796;3.860;2022-11-11T08:02:18;12.30;;;6.85;;
21270;SDS011;10795;50.796;3.860;2022-11-11T08:05:02;11.63;;;6.93;;
21270;SDS011;10795;50.796;3.860;2022-11-11T08:07:46;12.75;;;6.40;;
21270;SDS011;10795;50.796;3.860;2022-11-11T08:10:31;11.50;;;7.32;;
21270;SDS011;10795;50.796;3.860;2022-11-11T08:13:16;9.77;;;5.32;;
21270;SDS011;10795;50.796;3.860;2022-11-11T08:16:19;11.00;;;5.32;;
21270;SDS011;10795;50.796;3.860;2022-11-11T08:19:03;8.52;;;5.75;;
21270;SDS011;10795;50.796;3.860;2022-11-11T08:21:47;9.77;;;6.53;;
21270;SDS011;10795;50.796;3.860;2022-11-11T08:24:31;12.18;;;6.82;;
21270;SDS011;10795;50.796;3.860;2022-11-11T08:27:15;14.13;;;6.70;;
21270;SDS011;10795;50.796;3.860;2022-11-11T08:29:59;9.68;;;6.18;;
21270;SDS011;10795;50.796;3.860;2022-11-11T08:32:43;7.43;;;4.82;;
21270;SDS011;10795;50.796;3.860;2022-11-11T08:35:27;7.72;;;5.80;;
21270;SDS011;10795;50.796;3.860;2022-11-11T08:38:12;10.73;;;5.82;;
21270;SDS011;10795;50.796;3.860;2022-11-11T08:41:00;8.40;;;4.95;;
21270;SDS011;10795;50.796;3.860;2022-11-11T08:43:45;8.52;;;5.85;;
21270;SDS011;10795;50.796;3.860;2022-11-11T08:46:29;8.75;;;5.97;;
21270;SDS011;10795;50.796;3.860;2022-11-11T08:49:14;7.90;;;4.68;;
21270;SDS011;10795;50.796;3.860;2022-11-11T08:51:58;12.52;;;6.82;;
21270;SDS011;10795;50.796;3.860;2022-11-11T08:54:43;10.00;;;6.50;;
21270;SDS011;10795;50.796;3.860;2022-11-11T08:57:28;10.80;;;7.25;;
21270;SDS011;10795;50.796;3.860;2022-11-11T09:00:12;11.60;;;6.90;;
21270;SDS011;10795;50.796;3.860;2022-11-11T09:03:03;8.30;;;6.18;;
21270;SDS011;10795;50.796;3.860;2022-11-11T09:05:49;11.57;;;6.50;;
21270;SDS011;10795;50.796;3.860;2022-11-11T09:08:33;9.45;;;6.70;;
21270;SDS011;10795;50.796;3.860;2022-11-11T09:11:17;13.93;;;6.60;;
21270;SDS011;10795;50.796;3.860;2022-11-11T09:14:01;9.48;;;5.85;;
21270;SDS011;10795;50.796;3.860;2022-11-11T09:16:45;9.50;;;5.95;;
21270;SDS011;10795;50.796;3.860;2022-11-11T09:19:29;6.38;;;4.63;;
21270;SDS011;10795;50.796;3.860;2022-11-11T09:22:13;9.73;;;6.03;;
21270;SDS011;10795;50.796;3.860;2022-11-11T09:24:57;9.45;;;6.25;;
21270;SDS011;10795;50.796;3.860;2022-11-11T09:27:42;8.85;;;6.50;;
21270;SDS011;10795;50.796;3.860;2022-11-11T09:30:27;13.10;;;7.18;;
21270;SDS011;10795;50.796;3.860;2022-11-11T09:33:15;13.10;;;7.10;;
21270;SDS011;10795;50.796;3.860;2022-11-11T09:36:02;12.77;;;7.32;;
21270;SDS011;10795;50.796;3.860;2022-11-11T09:38:46;9.32;;;6.45;;
21270;SDS011;10795;50.796;3.860;2022-11-11T09:41:35;10.07;;;6.40;;
21270;SDS011;10795;50.796;3.860;2022-11-11T09:44:24;12.18;;;8.30;;
21270;SDS011;10795;50.796;3.860;2022-11-11T09:50:42;10.48;;;6.80;;
21270;SDS011;10795;50.796;3.860;2022-11-11T09:53:41;11.75;;;6.68;;
21270;SDS011;10795;50.796;3.860;2022-11-11T09:56:32;10.38;;;7.25;;
21270;SDS011;10795;50.796;3.860;2022-11-11T09:59:23;13.80;;;7.70;;
21270;SDS011;10795;50.796;3.860;2022-11-11T10:05:27;13.18;;;9.52;;
21270;SDS011;10795;50.796;3.860;2022-11-11T10:08:21;15.38;;;12.70;;
21270;SDS011;10795;50.796;3.860;2022-11-11T10:11:34;10.85;;;8.07;;
21270;SDS011;10795;50.796;3.860;2022-11-11T10:14:22;14.63;;;8.32;;
21270;SDS011;10795;50.796;3.860;2022-11-11T10:17:11;9.80;;;6.15;;
21270;SDS011;10795;50.796;3.860;2022-11-11T10:20:10;11.20;;;8.23;;
21270;SDS011;10795;50.796;3.860;2022-11-11T10:23:07;10.60;;;7.70;;
21270;SDS011;10795;50.796;3.860;2022-11-11T10:26:13;12.32;;;7.03;;
21270;SDS011;10795;50.796;3.860;2022-11-11T10:29:03;11.68;;;7.72;;
21270;SDS011;10795;50.796;3.860;2022-11-11T10:32:01;11.68;;;8.05;;
21270;SDS011;10795;50.796;3.860;2022-11-11T10:34:53;14.32;;;7.72;;
21270;SDS011;10795;50.796;3.860;2022-11-11T10:37:47;11.27;;;6.90;;
21270;SDS011;10795;50.796;3.860;2022-11-11T10:40:53;8.20;;;5.07;;
21270;SDS011;10795;50.796;3.860;2022-11-11T10:43:45;10.50;;;7.63;;
21270;SDS011;10795;50.796;3.860;2022-11-11T10:46:35;8.93;;;5.47;;
21270;SDS011;10795;50.796;3.860;2022-11-11T10:49:24;7.63;;;5.93;;
21270;SDS011;10795;50.796;3.860;2022-11-11T10:58:53;8.77;;;6.63;;
21270;SDS011;10795;50.796;3.860;2022-11-11T11:02:00;8.57;;;5.90;;
21270;SDS011;10795;50.796;3.860;2022-11-11T11:19:41;8.35;;;5.88;;
21270;SDS011;10795;50.796;3.860;2022-11-11T11:32:30;10.15;;;6.50;;
21270;SDS011;10795;50.796;3.860;2022-11-11T12:42:32;7.80;;;5.38;;
21270;SDS011;10795;50.796;3.860;2022-11-11T12:46:05;7.63;;;6.03;;
21270;SDS011;10795;50.796;3.860;2022-11-11T12:55:50;5.57;;;3.72;;
21270;SDS011;10795;50.796;3.860;2022-11-11T12:58:46;5.47;;;3.85;;
21270;SDS011;10795;50.796;3.860;2022-11-11T13:01:49;8.43;;;5.55;;
21270;SDS011;10795;50.796;3.860;2022-11-11T13:04:47;6.68;;;4.55;;
21270;SDS011;10795;50.796;3.860;2022-11-11T13:17:10;9.00;;;5.80;;
21270;SDS011;10795;50.796;3.860;2022-11-11T13:19:56;5.65;;;4.72;;
21270;SDS011;10795;50.796;3.860;2022-11-11T13:22:47;7.72;;;5.57;;
21270;SDS011;10795;50.796;3.860;2022-11-11T13:25:36;7.20;;;5.85;;
21270;SDS011;10795;50.796;3.860;2022-11-11T13:28:34;10.82;;;5.43;;
21270;SDS011;10795;50.796;3.860;2022-11-11T13:31:35;8.88;;;6.38;;
21270;SDS011;10795;50.796;3.860;2022-11-11T13:34:22;8.45;;;4.28;;
21270;SDS011;10795;50.796;3.860;2022-11-11T13:37:17;7.55;;;5.72;;
21270;SDS011;10795;50.796;3.860;2022-11-11T13:40:18;9.35;;;6.47;;
21270;SDS011;10795;50.796;3.860;2022-11-11T13:43:20;6.68;;;4.60;;
21270;SDS011;10795;50.796;3.860;2022-11-11T13:46:11;7.95;;;5.30;;
21270;SDS011;10795;50.796;3.860;2022-11-11T13:49:23;7.75;;;5.18;;
21270;SDS011;10795;50.796;3.860;2022-11-11T13:52:25;7.38;;;5.18;;
21270;SDS011;10795;50.796;3.860;2022-11-11T13:55:30;10.32;;;6.25;;
21270;SDS011;10795;50.796;3.860;2022-11-11T13:58:20;7.10;;;4.55;;
21270;SDS011;10795;50.796;3.860;2022-11-11T14:01:09;12.20;;;6.40;;
21270;SDS011;10795;50.796;3.860;2022-11-11T14:03:58;9.55;;;5.78;;
21270;SDS011;10795;50.796;3.860;2022-11-11T14:06:51;10.75;;;5.47;;
21270;SDS011;10795;50.796;3.860;2022-11-11T14:15:37;6.40;;;4.80;;
21270;SDS011;10795;50.796;3.860;2022-11-11T14:18:32;8.27;;;5.70;;
21270;SDS011;10795;50.796;3.860;2022-11-11T14:27:27;11.07;;;6.05;;
21270;SDS011;10795;50.796;3.860;2022-11-11T14:30:32;7.65;;;4.65;;
21270;SDS011;10795;50.796;3.860;2022-11-11T14:40:27;9.93;;;5.85;;
21270;SDS011;10795;50.796;3.860;2022-11-11T14:46:21;7.80;;;4.90;;
21270;SDS011;10795;50.796;3.860;2022-11-11T14:49:06;8.88;;;4.80;;
21270;SDS011;10795;50.796;3.860;2022-11-11T14:51:52;7.75;;;4.75;;
21270;SDS011;10795;50.796;3.860;2022-11-11T14:54:50;6.30;;;4.38;;
21270;SDS011;10795;50.796;3.860;2022-11-11T14:57:48;9.68;;;4.93;;
21270;SDS011;10795;50.796;3.860;2022-11-11T15:03:35;5.20;;;3.85;;
21270;SDS011;10795;50.796;3.860;2022-11-11T15:06:23;8.57;;;5.95;;
21270;SDS011;10795;50.796;3.860;2022-11-11T15:09:42;8.82;;;4.43;;
21270;SDS011;10795;50.796;3.860;2022-11-11T15:18:55;31.83;;;17.23;;
21270;SDS011;10795;50.796;3.860;2022-11-11T15:21:45;10.80;;;7.47;;
21270;SDS011;10795;50.796;3.860;2022-11-11T15:24:46;7.05;;;4.38;;
21270;SDS011;10795;50.796;3.860;2022-11-11T15:27:35;6.97;;;4.90;;
21270;SDS011;10795;50.796;3.860;2022-11-11T15:30:36;8.50;;;5.10;;
21270;SDS011;10795;50.796;3.860;2022-11-11T15:39:37;7.32;;;5.10;;
21270;SDS011;10795;50.796;3.860;2022-11-11T15:42:34;7.63;;;4.70;;
21270;SDS011;10795;50.796;3.860;2022-11-11T15:45:22;5.20;;;4.00;;
21270;SDS011;10795;50.796;3.860;2022-11-11T15:48:17;8.75;;;4.50;;
21270;SDS011;10795;50.796;3.860;2022-11-11T15:51:17;8.63;;;5.18;;
21270;SDS011;10795;50.796;3.860;2022-11-11T15:56:59;7.35;;;4.68;;
21270;SDS011;10795;50.796;3.860;2022-11-11T16:00:01;7.30;;;4.72;;
21270;SDS011;10795;50.796;3.860;2022-11-11T16:03:02;9.05;;;7.03;;
21270;SDS011;10795;50.796;3.860;2022-11-11T16:05:47;5.35;;;4.22;;
21270;SDS011;10795;50.796;3.860;2022-11-11T16:08:32;9.23;;;5.93;;
21270;SDS011;10795;50.796;3.860;2022-11-11T16:11:16;6.00;;;4.28;;
21270;SDS011;10795;50.796;3.860;2022-11-11T16:14:03;11.30;;;5.50;;
21270;SDS011;10795;50.796;3.860;2022-11-11T16:16:48;6.63;;;5.40;;
21270;SDS011;10795;50.796;3.860;2022-11-11T16:19:35;7.15;;;5.63;;
21270;SDS011;10795;50.796;3.860;2022-11-11T16:22:31;6.40;;;5.35;;
21270;SDS011;10795;50.796;3.860;2022-11-11T16:25:20;9.43;;;6.50;;
21270;SDS011;10795;50.796;3.860;2022-11-11T16:28:05;8.98;;;6.70;;
21270;SDS011;10795;50.796;3.860;2022-11-11T16:30:49;12.98;;;8.73;;
21270;SDS011;10795;50.796;3.860;2022-11-11T16:33:34;11.90;;;7.60;;
21270;SDS011;10795;50.796;3.860;2022-11-11T16:36:18;11.00;;;7.40;;
21270;SDS011;10795;50.796;3.860;2022-11-11T16:39:12;10.30;;;7.75;;
21270;SDS011;10795;50.796;3.860;2022-11-11T16:41:58;11.35;;;9.95;;
21270;SDS011;10795;50.796;3.860;2022-11-11T16:47:46;9.77;;;7.57;;
21270;SDS011;10795;50.796;3.860;2022-11-11T16:50:32;10.50;;;7.38;;
21270;SDS011;10795;50.796;3.860;2022-11-11T16:53:26;11.68;;;6.82;;
21270;SDS011;10795;50.796;3.860;2022-11-11T16:56:22;9.27;;;7.00;;
21270;SDS011;10795;50.796;3.860;2022-11-11T16:59:21;11.75;;;7.28;;
21270;SDS011;10795;50.796;3.860;2022-11-11T17:02:16;12.75;;;6.82;;
21270;SDS011;10795;50.796;3.860;2022-11-11T17:05:05;9.93;;;7.75;;
21270;SDS011;10795;50.796;3.860;2022-11-11T17:07:51;11.80;;;7.80;;
21270;SDS011;10795;50.796;3.860;2022-11-11T17:10:37;7.88;;;6.43;;
21270;SDS011;10795;50.796;3.860;2022-11-11T17:13:23;10.07;;;6.45;;
21270;SDS011;10795;50.796;3.860;2022-11-11T17:16:08;9.70;;;7.30;;
21270;SDS011;10795;50.796;3.860;2022-11-11T17:18:55;10.48;;;7.03;;
21270;SDS011;10795;50.796;3.860;2022-11-11T17:21:42;11.70;;;8.15;;
21270;SDS011;10795;50.796;3.860;2022-11-11T17:24:28;9.20;;;7.63;;
21270;SDS011;10795;50.796;3.860;2022-11-11T17:27:13;9.10;;;7.80;;
21270;SDS011;10795;50.796;3.860;2022-11-11T17:29:58;11.65;;;8.25;;
21270;SDS011;10795;50.796;3.860;2022-11-11T17:32:46;11.55;;;8.57;;
21270;SDS011;10795;50.796;3.860;2022-11-11T17:35:31;9.63;;;7.55;;
21270;SDS011;10795;50.796;3.860;2022-11-11T17:38:16;13.10;;;8.90;;
21270;SDS011;10795;50.796;3.860;2022-11-11T17:41:00;12.70;;;9.93;;
21270;SDS011;10795;50.796;3.860;2022-11-11T17:43:44;13.48;;;9.70;;
21270;SDS011;10795;50.796;3.860;2022-11-11T17:46:28;14.07;;;9.65;;
21270;SDS011;10795;50.796;3.860;2022-11-11T17:49:13;13.27;;;10.70;;
21270;SDS011;10795;50.796;3.860;2022-11-11T17:51:59;18.85;;;12.82;;
21270;SDS011;10795;50.796;3.860;2022-11-11T17:54:44;28.05;;;16.00;;
21270;SDS011;10795;50.796;3.860;2022-11-11T17:57:28;55.70;;;25.35;;
21270;SDS011;10795;50.796;3.860;2022-11-11T18:00:14;51.33;;;23.50;;
21270;SDS011;10795;50.796;3.860;2022-11-11T18:02:59;47.67;;;23.25;;
21270;SDS011;10795;50.796;3.860;2022-11-11T18:05:44;40.03;;;20.98;;
21270;SDS011;10795;50.796;3.860;2022-11-11T18:08:29;20.17;;;13.02;;
21270;SDS011;10795;50.796;3.860;2022-11-11T18:11:13;33.88;;;17.23;;
21270;SDS011;10795;50.796;3.860;2022-11-11T18:13:58;36.80;;;19.85;;
21270;SDS011;10795;50.796;3.860;2022-11-11T18:16:43;63.63;;;28.33;;
21270;SDS011;10795;50.796;3.860;2022-11-11T18:19:27;32.38;;;17.42;;
21270;SDS011;10795;50.796;3.860;2022-11-11T18:22:11;29.88;;;15.52;;
21270;SDS011;10795;50.796;3.860;2022-11-11T18:24:56;21.05;;;12.52;;
21270;SDS011;10795;50.796;3.860;2022-11-11T18:27:41;27.20;;;16.20;;
21270;SDS011;10795;50.796;3.860;2022-11-11T18:30:28;24.02;;;15.95;;
21270;SDS011;10795;50.796;3.860;2022-11-11T18:33:12;19.17;;;13.18;;
21270;SDS011;10795;50.796;3.860;2022-11-11T18:36:06;17.77;;;11.30;;
21270;SDS011;10795;50.796;3.860;2022-11-11T18:38:53;15.13;;;10.38;;
21270;SDS011;10795;50.796;3.860;2022-11-11T18:41:39;13.15;;;10.60;;
21270;SDS011;10795;50.796;3.860;2022-11-11T18:44:23;15.27;;;10.40;;
21270;SDS011;10795;50.796;3.860;2022-11-11T18:47:07;13.73;;;9.63;;
21270;SDS011;10795;50.796;3.860;2022-11-11T18:49:52;15.18;;;12.25;;
21270;SDS011;10795;50.796;3.860;2022-11-11T18:52:36;15.50;;;11.77;;
21270;SDS011;10795;50.796;3.860;2022-11-11T18:55:20;16.73;;;12.10;;
21270;SDS011;10795;50.796;3.860;2022-11-11T18:58:05;14.57;;;11.38;;
21270;SDS011;10795;50.796;3.860;2022-11-11T19:00:49;14.93;;;11.23;;
21270;SDS011;10795;50.796;3.860;2022-11-11T19:03:33;15.57;;;11.63;;
21270;SDS011;10795;50.796;3.860;2022-11-11T19:06:18;15.60;;;10.70;;
21270;SDS011;10795;50.796;3.860;2022-11-11T19:09:07;14.73;;;11.00;;
21270;SDS011;10795;50.796;3.860;2022-11-11T19:11:53;11.43;;;10.00;;
21270;SDS011;10795;50.796;3.860;2022-11-11T19:14:37;12.88;;;10.02;;
21270;SDS011;10795;50.796;3.860;2022-11-11T19:17:21;11.52;;;10.02;;
21270;SDS011;10795;50.796;3.860;2022-11-11T19:20:06;15.35;;;10.07;;
21270;SDS011;10795;50.796;3.860;2022-11-11T19:22:51;18.90;;;11.55;;
21270;SDS011;10795;50.796;3.860;2022-11-11T19:25:35;17.85;;;13.52;;
21270;SDS011;10795;50.796;3.860;2022-11-11T19:28:20;14.77;;;12.30;;
21270;SDS011;10795;50.796;3.860;2022-11-11T19:31:05;14.35;;;11.07;;
21270;SDS011;10795;50.796;3.860;2022-11-11T19:33:55;16.70;;;12.07;;
21270;SDS011;10795;50.796;3.860;2022-11-11T19:36:40;13.43;;;10.55;;
21270;SDS011;10795;50.796;3.860;2022-11-11T19:39:25;17.95;;;13.15;;
21270;SDS011;10795;50.796;3.860;2022-11-11T19:42:09;11.35;;;9.70;;
21270;SDS011;10795;50.796;3.860;2022-11-11T19:44:54;15.23;;;12.05;;
21270;SDS011;10795;50.796;3.860;2022-11-11T19:47:38;16.25;;;11.88;;
21270;SDS011;10795;50.796;3.860;2022-11-11T19:50:22;15.52;;;11.43;;
21270;SDS011;10795;50.796;3.860;2022-11-11T19:53:09;18.98;;;11.68;;
21270;SDS011;10795;50.796;3.860;2022-11-11T19:55:55;14.10;;;12.35;;
21270;SDS011;10795;50.796;3.860;2022-11-11T19:58:40;15.55;;;11.98;;
21270;SDS011;10795;50.796;3.860;2022-11-11T20:01:25;17.42;;;13.10;;
21270;SDS011;10795;50.796;3.860;2022-11-11T20:04:10;18.58;;;15.10;;
21270;SDS011;10795;50.796;3.860;2022-11-11T20:06:54;23.85;;;15.77;;